createdAt,value
2022-12-25T00:01:17.053Z,42.90
2022-12-25T00:03:51.846Z,44.67
2022-12-25T00:06:21.723Z,47.53
2022-12-25T00:08:51.836Z,44.90
2022-12-25T00:11:21.540Z,46.37
2022-12-25T00:13:50.838Z,53.83
2022-12-25T00:16:22.492Z,49.43
2022-12-25T00:18:53.056Z,49.40
2022-12-25T00:21:22.848Z,47.10
2022-12-25T00:23:56.158Z,41.27
2022-12-25T00:26:26.984Z,44.60
2022-12-25T00:28:58.254Z,44.17
2022-12-25T00:31:27.808Z,41.30
2022-12-25T00:33:56.863Z,45.00
2022-12-25T00:36:25.999Z,43.73
2022-12-25T00:38:55.073Z,42.33
2022-12-25T00:41:39.421Z,45.30
2022-12-25T00:44:09.176Z,40.37
2022-12-25T00:46:39.717Z,45.00
2022-12-25T00:49:09.502Z,43.83
2022-12-25T00:51:39.332Z,48.33
2022-12-25T00:54:08.403Z,45.97
2022-12-25T00:56:39.492Z,45.77
2022-12-25T00:59:09.177Z,50.47
2022-12-25T01:01:40.297Z,51.50
2022-12-25T01:04:10.474Z,52.10
2022-12-25T01:06:40.792Z,53.93
2022-12-25T01:09:28.087Z,56.87
2022-12-25T01:11:57.142Z,50.13
2022-12-25T01:14:27.084Z,55.17
2022-12-25T01:16:56.453Z,57.53
2022-12-25T01:19:26.927Z,49.60
2022-12-25T01:21:57.146Z,54.03
2022-12-25T01:24:26.979Z,50.60
2022-12-25T01:26:56.670Z,44.93
2022-12-25T01:29:26.528Z,47.73
2022-12-25T01:31:56.795Z,49.37
2022-12-25T01:34:27.697Z,48.57
2022-12-25T01:36:57.458Z,41.63
2022-12-25T01:39:26.772Z,39.00
2022-12-25T01:41:58.907Z,41.83
2022-12-25T01:45:04.420Z,39.83
2022-12-25T01:47:33.814Z,34.43
2022-12-25T01:50:04.266Z,41.70
2022-12-25T01:52:33.813Z,45.33
2022-12-25T01:55:04.234Z,42.80
2022-12-25T01:57:38.251Z,40.17
2022-12-25T02:00:10.975Z,41.23
2022-12-25T02:02:41.542Z,41.10
2022-12-25T02:05:18.155Z,37.33
2022-12-25T02:07:48.566Z,40.77
2022-12-25T02:10:18.566Z,37.33
2022-12-25T02:12:48.973Z,38.53
2022-12-25T02:15:27.130Z,42.87
2022-12-25T02:18:07.377Z,39.40
2022-12-25T02:20:56.778Z,37.33
2022-12-25T02:24:09.381Z,38.93
2022-12-25T02:27:02.831Z,36.73
2022-12-25T02:29:43.508Z,38.90
2022-12-25T02:32:26.092Z,38.53
2022-12-25T02:35:02.407Z,41.47
2022-12-25T02:37:38.736Z,37.97
2022-12-25T02:40:15.964Z,35.80
2022-12-25T02:43:09.280Z,42.07
2022-12-25T02:46:00.583Z,43.73
2022-12-25T02:48:52.673Z,43.40
2022-12-25T02:51:43.560Z,42.23
2022-12-25T02:54:34.694Z,37.50
2022-12-25T02:57:26.778Z,42.57
2022-12-25T03:00:16.654Z,37.77
2022-12-25T03:03:06.015Z,39.73
2022-12-25T03:05:58.462Z,47.50
2022-12-25T03:08:33.854Z,44.87
2022-12-25T03:11:23.736Z,45.20
2022-12-25T03:14:18.461Z,45.77
2022-12-25T03:16:50.276Z,47.23
2022-12-25T03:19:39.642Z,47.00
2022-12-25T03:22:31.838Z,47.67
2022-12-25T03:25:21.696Z,46.73
2022-12-25T03:27:53.332Z,45.77
2022-12-25T03:30:42.080Z,43.07
2022-12-25T03:33:43.720Z,44.70
2022-12-25T03:36:14.144Z,52.53
2022-12-25T03:39:10.852Z,47.57
2022-12-25T03:42:04.825Z,50.70
2022-12-25T03:45:00.145Z,53.40
2022-12-25T03:48:01.144Z,53.17
2022-12-25T03:50:54.114Z,51.50
2022-12-25T03:53:48.810Z,46.43
2022-12-25T03:56:35.196Z,58.42
2022-12-25T03:59:24.064Z,49.97
2022-12-25T04:02:23.532Z,50.40
2022-12-25T04:05:11.337Z,50.83
2022-12-25T04:07:58.869Z,52.83
2022-12-25T04:10:46.155Z,48.17
2022-12-25T04:13:33.881Z,49.10
2022-12-25T04:16:22.302Z,43.90
2022-12-25T04:19:24.498Z,47.47
2022-12-25T04:22:11.451Z,49.67
2022-12-25T04:24:59.583Z,53.27
2022-12-25T04:27:46.925Z,51.10
2022-12-25T04:30:34.366Z,45.30
2022-12-25T04:33:21.373Z,43.07
2022-12-25T04:36:08.914Z,48.30
2022-12-25T04:38:39.636Z,52.37
2022-12-25T04:41:10.700Z,41.00
2022-12-25T04:43:40.969Z,47.27
2022-12-25T04:46:28.185Z,45.87
2022-12-25T04:48:58.100Z,46.33
2022-12-25T04:51:27.563Z,50.07
2022-12-25T04:53:56.911Z,53.23
2022-12-25T04:56:26.366Z,53.70
2022-12-25T04:58:55.815Z,54.17
2022-12-25T05:01:26.926Z,53.10
2022-12-25T05:04:07.518Z,50.33
2022-12-25T05:06:36.971Z,49.30
2022-12-25T05:09:06.330Z,49.73
2022-12-25T05:11:35.685Z,50.57
2022-12-25T05:14:05.456Z,56.63
2022-12-25T05:16:36.611Z,44.60
2022-12-25T05:19:05.894Z,49.67
2022-12-25T05:21:35.232Z,48.87
2022-12-25T05:24:04.830Z,47.37
2022-12-25T05:26:34.169Z,43.13
2022-12-25T05:29:03.393Z,52.80
2022-12-25T05:31:37.880Z,55.63
2022-12-25T05:34:11.215Z,47.80
2022-12-25T05:36:41.346Z,49.67
2022-12-25T05:39:10.463Z,52.90
2022-12-25T05:41:41.597Z,55.83
2022-12-25T05:44:10.683Z,49.03
2022-12-25T05:46:41.826Z,49.40
2022-12-25T05:49:11.328Z,54.03
2022-12-25T05:51:41.862Z,44.47
2022-12-25T05:54:11.762Z,52.00
2022-12-25T05:56:42.230Z,52.70
2022-12-25T05:59:11.510Z,54.80
2022-12-25T06:01:41.777Z,60.17
2022-12-25T06:04:12.898Z,53.53
2022-12-25T06:06:42.307Z,55.13
2022-12-25T06:09:13.139Z,54.20
2022-12-25T06:11:42.632Z,55.87
2022-12-25T06:14:13.596Z,58.83
2022-12-25T06:16:43.156Z,56.83
2022-12-25T06:19:13.207Z,50.73
2022-12-25T06:21:42.653Z,62.47
2022-12-25T06:24:16.219Z,56.63
2022-12-25T06:26:50.617Z,56.53
2022-12-25T06:29:19.901Z,63.60
2022-12-25T06:31:49.495Z,69.00
2022-12-25T06:34:18.848Z,68.40
2022-12-25T06:36:48.198Z,69.50
2022-12-25T06:39:17.351Z,74.57
2022-12-25T06:41:46.422Z,81.90
2022-12-25T06:44:15.720Z,83.20
2022-12-25T06:46:45.025Z,86.83
2022-12-25T06:49:14.214Z,90.33
2022-12-25T06:51:43.405Z,93.97
2022-12-25T06:54:12.430Z,83.50
2022-12-25T06:56:42.226Z,78.53
2022-12-25T06:59:12.393Z,91.23
2022-12-25T07:01:50.309Z,77.63
2022-12-25T07:04:24.475Z,78.50
2022-12-25T07:06:53.791Z,81.47
2022-12-25T07:09:22.887Z,79.80
2022-12-25T07:11:53.002Z,106.87
2022-12-25T07:14:24.698Z,92.80
2022-12-25T07:16:53.944Z,81.70
2022-12-25T07:19:23.227Z,72.80
2022-12-25T07:21:52.296Z,83.37
2022-12-25T07:24:22.163Z,76.47
2022-12-25T07:26:52.204Z,75.23
2022-12-25T07:29:21.708Z,71.70
2022-12-25T07:31:50.777Z,78.73
2022-12-25T07:34:20.158Z,64.40
2022-12-25T07:36:49.425Z,74.13
2022-12-25T07:39:18.405Z,72.00
2022-12-25T07:41:47.459Z,73.70
2022-12-25T07:44:16.948Z,66.50
2022-12-25T07:46:46.250Z,70.87
2022-12-25T07:49:15.760Z,68.73
2022-12-25T07:51:45.011Z,62.17
2022-12-25T07:54:14.161Z,68.87
2022-12-25T07:56:43.268Z,62.93
2022-12-25T07:59:12.471Z,66.93
2022-12-25T08:01:41.978Z,66.50
2022-12-25T08:04:11.665Z,68.67
2022-12-25T08:06:42.313Z,68.27
2022-12-25T08:09:13.391Z,63.57
2022-12-25T08:11:46.625Z,70.80
2022-12-25T08:14:15.723Z,79.67
2022-12-25T08:16:46.208Z,69.03
2022-12-25T08:19:15.255Z,62.27
2022-12-25T08:21:44.855Z,64.57
2022-12-25T08:24:13.847Z,57.43
2022-12-25T08:26:42.865Z,64.93
2022-12-25T08:29:11.812Z,64.83
2022-12-25T08:31:46.483Z,62.30
2022-12-25T08:34:15.817Z,69.33
2022-12-25T08:36:45.063Z,68.90
2022-12-25T08:39:14.361Z,61.70
2022-12-25T08:41:43.282Z,58.93
2022-12-25T08:44:12.867Z,61.27
2022-12-25T08:46:42.222Z,55.00
2022-12-25T08:49:11.239Z,58.20
2022-12-25T08:51:40.991Z,67.20
2022-12-25T08:54:10.049Z,59.97
2022-12-25T08:56:39.947Z,64.40
2022-12-25T08:59:08.804Z,66.50
2022-12-25T09:01:39.212Z,53.57
2022-12-25T09:04:08.506Z,58.03
2022-12-25T09:06:37.435Z,48.60
2022-12-25T09:09:07.214Z,55.97
2022-12-25T09:11:36.790Z,60.10
2022-12-25T09:14:06.021Z,59.03
2022-12-25T09:16:36.748Z,60.87
2022-12-25T09:19:05.788Z,59.13
2022-12-25T09:21:36.159Z,48.63
2022-12-25T09:24:05.573Z,53.10
2022-12-25T09:26:34.805Z,59.60
2022-12-25T09:29:03.755Z,50.33
2022-12-25T09:31:36.230Z,57.23
2022-12-25T09:34:05.326Z,54.37
2022-12-25T09:36:37.429Z,51.47
2022-12-25T09:39:07.570Z,55.70
2022-12-25T09:41:46.782Z,53.37
2022-12-25T09:44:21.196Z,52.43
2022-12-25T09:49:26.425Z,48.23
2022-12-25T09:52:00.079Z,50.17
2022-12-25T09:54:41.982Z,48.20
2022-12-25T09:57:14.220Z,52.53
2022-12-25T09:59:47.070Z,47.27
2022-12-25T10:02:36.412Z,54.40
2022-12-25T10:05:20.768Z,49.60
2022-12-25T10:08:02.809Z,50.85
2022-12-25T10:10:50.063Z,49.17
2022-12-25T10:13:44.036Z,53.20
2022-12-25T10:16:24.216Z,52.40
2022-12-25T10:19:10.032Z,47.43
2022-12-25T10:21:41.292Z,44.73
2022-12-25T10:24:31.934Z,48.67
2022-12-25T10:27:05.002Z,41.67
2022-12-25T10:29:35.699Z,43.10
2022-12-25T10:32:05.351Z,46.27
2022-12-25T10:34:35.462Z,46.60
2022-12-25T10:37:04.343Z,44.57
2022-12-25T10:39:33.407Z,36.40
2022-12-25T10:42:18.452Z,37.70
2022-12-25T10:44:56.790Z,35.57
2022-12-25T10:47:29.604Z,35.67
2022-12-25T10:49:59.613Z,31.67
2022-12-25T10:52:30.050Z,34.30
2022-12-25T10:54:58.941Z,30.97
2022-12-25T10:57:29.274Z,31.93
2022-12-25T10:59:58.249Z,37.13
2022-12-25T11:02:29.657Z,39.57
2022-12-25T11:05:05.028Z,36.27
2022-12-25T11:07:53.321Z,46.73
2022-12-25T11:10:25.065Z,36.03
2022-12-25T11:12:54.731Z,33.57
2022-12-25T11:15:37.189Z,34.43
2022-12-25T11:18:20.226Z,36.27
2022-12-25T11:20:51.779Z,36.30
2022-12-25T11:23:22.683Z,41.20
2022-12-25T11:25:59.029Z,38.23
2022-12-25T11:28:30.946Z,39.57
2022-12-25T11:31:05.749Z,41.60
2022-12-25T11:33:37.354Z,39.83
2022-12-25T11:36:16.185Z,40.53
2022-12-25T11:38:45.616Z,42.17
2022-12-25T11:41:20.005Z,37.00
2022-12-25T11:43:55.696Z,43.33
2022-12-25T11:46:34.473Z,47.50
2022-12-25T11:49:09.652Z,49.60
2022-12-25T11:51:44.087Z,45.80
2022-12-25T11:54:22.305Z,45.13
2022-12-25T11:56:51.809Z,43.10
2022-12-25T11:59:27.164Z,46.17
2022-12-25T12:02:01.889Z,46.87
2022-12-25T12:04:42.424Z,44.93
2022-12-25T12:07:21.816Z,48.07
2022-12-25T12:09:56.947Z,46.00
2022-12-25T12:12:34.218Z,46.70
2022-12-25T12:15:14.759Z,41.17
2022-12-25T12:17:43.745Z,42.77
2022-12-25T12:20:26.712Z,45.13
2022-12-25T12:22:56.389Z,50.13
2022-12-25T12:25:26.349Z,49.00
2022-12-25T12:28:04.474Z,48.33
2022-12-25T12:30:35.996Z,48.57
2022-12-25T12:33:07.013Z,49.93
2022-12-25T12:35:38.619Z,53.10
2022-12-25T12:38:14.015Z,45.00
2022-12-25T12:40:56.818Z,55.37
2022-12-25T12:43:35.139Z,50.70
2022-12-25T12:46:13.357Z,55.70
2022-12-25T12:48:45.005Z,54.43
2022-12-25T12:51:30.316Z,51.75
2022-12-25T12:54:17.799Z,56.87
2022-12-25T12:56:57.380Z,56.63
2022-12-25T12:59:39.191Z,64.17
2022-12-25T13:02:30.753Z,64.90
2022-12-25T13:05:03.937Z,57.73
2022-12-25T13:07:50.401Z,61.50
2022-12-25T13:10:27.374Z,63.73
2022-12-25T13:13:01.040Z,66.33
2022-12-25T13:15:34.968Z,104.73
2022-12-25T13:20:45.252Z,69.67
2022-12-25T13:23:23.856Z,73.37
2022-12-25T13:25:55.038Z,74.40
2022-12-25T13:28:29.068Z,69.87
2022-12-25T13:31:07.223Z,68.25
2022-12-25T13:33:38.514Z,82.03
2022-12-25T13:36:12.585Z,75.40
2022-12-25T13:41:37.712Z,76.23
2022-12-25T13:44:18.377Z,84.30
2022-12-25T13:46:48.178Z,78.50
2022-12-25T13:49:20.274Z,92.23
2022-12-25T13:51:50.179Z,90.23
2022-12-25T13:54:19.980Z,75.97
2022-12-25T13:56:53.244Z,77.10
2022-12-25T13:59:25.739Z,75.67
2022-12-25T14:01:57.398Z,79.93
2022-12-25T14:04:26.870Z,76.90
2022-12-25T14:06:56.149Z,77.90
2022-12-25T14:09:25.494Z,80.70
2022-12-25T14:11:54.718Z,84.97
2022-12-25T14:14:26.070Z,90.90
2022-12-25T14:16:57.739Z,81.40
2022-12-25T14:19:29.797Z,86.23
2022-12-25T14:22:03.399Z,86.53
2022-12-25T14:24:34.155Z,78.90
2022-12-25T14:27:05.990Z,76.17
2022-12-25T14:29:40.036Z,82.53
2022-12-25T14:32:15.019Z,82.00
2022-12-25T14:34:50.843Z,74.93
2022-12-25T14:37:23.534Z,81.27
2022-12-25T14:39:58.768Z,82.00
2022-12-25T14:42:30.811Z,92.40
2022-12-25T14:45:03.382Z,108.43
2022-12-25T14:47:39.636Z,110.83
2022-12-25T14:50:25.028Z,110.47
2022-12-25T14:52:55.408Z,99.40
2022-12-25T14:55:27.105Z,104.57
2022-12-25T14:57:59.811Z,98.00
2022-12-25T15:00:32.310Z,102.43
2022-12-25T15:03:03.643Z,95.70
2022-12-25T15:05:37.933Z,83.70
2022-12-25T15:08:23.192Z,95.00
2022-12-25T15:11:00.510Z,93.00
2022-12-25T15:13:32.315Z,94.53
2022-12-25T15:16:06.378Z,92.53
2022-12-25T15:18:39.762Z,89.25
2022-12-25T15:21:15.747Z,98.07
2022-12-25T15:23:47.963Z,100.67
2022-12-25T15:26:17.080Z,89.67
2022-12-25T15:28:46.603Z,91.27
2022-12-25T15:31:21.950Z,103.80
2022-12-25T15:33:51.962Z,98.30
2022-12-25T15:36:21.101Z,102.53
2022-12-25T15:38:50.369Z,106.53
2022-12-25T15:41:41.054Z,108.33
2022-12-25T15:44:16.951Z,120.87
2022-12-25T15:46:46.940Z,114.87
2022-12-25T15:49:17.005Z,136.60
2022-12-25T15:51:46.590Z,125.13
2022-12-25T15:54:15.967Z,127.67
2022-12-25T15:56:47.294Z,121.83
2022-12-25T15:59:17.877Z,121.13
2022-12-25T16:01:51.184Z,141.60
2022-12-25T16:04:22.375Z,136.40
2022-12-25T16:06:52.225Z,127.87
2022-12-25T16:09:21.918Z,132.07
2022-12-25T16:11:51.222Z,128.83
2022-12-25T16:14:21.273Z,125.00
2022-12-25T16:16:50.406Z,122.67
2022-12-25T16:19:19.682Z,122.53
2022-12-25T16:21:50.642Z,120.63
2022-12-25T16:24:19.871Z,132.80
2022-12-25T16:26:50.772Z,122.20
2022-12-25T16:29:20.033Z,152.87
2022-12-25T16:31:49.047Z,143.63
2022-12-25T16:34:18.027Z,122.90
2022-12-25T16:36:48.000Z,126.77
2022-12-25T16:39:16.847Z,126.83
2022-12-25T16:41:45.977Z,120.20
2022-12-25T16:44:15.165Z,130.00
2022-12-25T16:46:47.043Z,133.93
2022-12-25T16:49:16.385Z,112.70
2022-12-25T16:51:47.889Z,114.60
2022-12-25T16:54:17.138Z,124.77
2022-12-25T16:56:46.237Z,111.25
2022-12-25T16:59:15.257Z,110.43
2022-12-25T17:01:45.408Z,105.23
2022-12-25T17:04:14.738Z,120.17
2022-12-25T17:06:46.359Z,121.77
2022-12-25T17:09:15.417Z,111.00
2022-12-25T17:11:46.885Z,114.07
2022-12-25T17:14:15.980Z,114.33
2022-12-25T17:16:47.985Z,113.00
2022-12-25T17:19:19.849Z,111.03
2022-12-25T17:21:49.509Z,114.03
2022-12-25T17:24:21.800Z,125.37
2022-12-25T17:26:50.755Z,127.37
2022-12-25T17:29:22.404Z,111.87
2022-12-25T17:31:52.283Z,108.60
2022-12-25T17:34:21.524Z,120.03
2022-12-25T17:36:50.567Z,115.50
2022-12-25T17:39:19.631Z,133.73
2022-12-25T17:41:50.531Z,119.80
2022-12-25T17:44:20.726Z,109.43
2022-12-25T17:46:50.527Z,119.30
2022-12-25T17:49:21.732Z,124.93
2022-12-25T17:51:50.695Z,124.73
2022-12-25T17:54:20.072Z,121.17
2022-12-25T17:56:50.175Z,119.33
2022-12-25T17:59:23.228Z,104.23
2022-12-25T18:01:52.623Z,101.53
2022-12-25T18:04:25.600Z,99.60
2022-12-25T18:06:54.795Z,123.50
2022-12-25T18:09:23.624Z,110.30
2022-12-25T18:11:52.615Z,119.73
2022-12-25T18:14:21.680Z,122.17
2022-12-25T18:16:50.726Z,129.50
2022-12-25T18:19:22.586Z,104.70
2022-12-25T18:21:51.757Z,133.03
2022-12-25T18:24:20.657Z,121.27
2022-12-25T18:26:49.745Z,124.00
2022-12-25T18:29:19.443Z,119.40
2022-12-25T18:31:48.534Z,115.53
2022-12-25T18:34:17.684Z,103.67
2022-12-25T18:36:47.927Z,101.20
2022-12-25T18:39:17.025Z,90.20
2022-12-25T18:42:11.141Z,134.50
2022-12-25T18:44:59.805Z,127.35
2022-12-25T18:47:28.999Z,120.50
2022-12-25T18:49:58.280Z,98.53
2022-12-25T18:52:47.613Z,139.07
2022-12-25T18:55:19.742Z,114.00
2022-12-25T19:00:46.446Z,143.07
2022-12-25T19:03:23.641Z,115.87
2022-12-25T19:05:55.387Z,94.00
2022-12-25T19:08:36.743Z,125.17
2022-12-25T19:11:21.441Z,113.13
2022-12-25T19:13:51.672Z,85.40
2022-12-25T19:16:20.713Z,91.37
2022-12-25T19:18:49.881Z,104.47
2022-12-25T19:21:19.816Z,102.20
2022-12-25T19:23:48.792Z,87.00
2022-12-25T19:26:18.355Z,112.67
2022-12-25T19:28:48.435Z,70.27
2022-12-25T19:31:18.058Z,88.17
2022-12-25T19:33:48.347Z,92.43
2022-12-25T19:36:17.773Z,88.13
2022-12-25T19:38:49.326Z,90.93
2022-12-25T19:41:20.510Z,94.47
2022-12-25T19:43:51.895Z,93.10
2022-12-25T19:46:22.834Z,86.10
2022-12-25T19:48:52.485Z,81.83
2022-12-25T19:51:25.262Z,71.93
2022-12-25T19:53:57.565Z,67.73
2022-12-25T19:56:30.699Z,74.60
2022-12-25T19:59:00.696Z,81.60
2022-12-25T20:01:35.896Z,77.90
2022-12-25T20:04:07.481Z,73.83
2022-12-25T20:06:38.842Z,76.53
2022-12-25T20:09:11.257Z,73.40
2022-12-25T20:11:41.395Z,65.63
2022-12-25T20:14:13.357Z,73.23
2022-12-25T20:16:44.446Z,76.87
2022-12-25T20:19:14.445Z,66.47
2022-12-25T20:21:43.618Z,71.47
2022-12-25T20:24:13.387Z,68.77
2022-12-25T20:26:45.351Z,62.30
2022-12-25T20:29:17.846Z,69.40
2022-12-25T20:31:49.387Z,66.80
2022-12-25T20:34:18.625Z,76.37
2022-12-25T20:36:50.972Z,65.23
2022-12-25T20:39:20.411Z,70.90
2022-12-25T20:41:49.439Z,67.00
2022-12-25T20:44:19.125Z,62.87
2022-12-25T20:46:48.687Z,83.13
2022-12-25T20:49:18.124Z,52.80
2022-12-25T20:51:47.520Z,60.53
2022-12-25T20:54:16.901Z,73.53
2022-12-25T20:56:48.902Z,63.83
2022-12-25T20:59:18.182Z,63.33
2022-12-25T21:01:49.991Z,60.73
2022-12-25T21:04:19.248Z,75.90
2022-12-25T21:06:48.625Z,62.57
2022-12-25T21:09:17.869Z,58.47
2022-12-25T21:12:00.442Z,65.20
2022-12-25T21:14:29.945Z,72.83
2022-12-25T21:17:00.885Z,59.43
2022-12-25T21:19:30.229Z,82.00
2022-12-25T21:22:01.369Z,64.97
2022-12-25T21:24:31.769Z,59.37
2022-12-25T21:27:01.193Z,49.47
2022-12-25T21:29:31.658Z,70.37
2022-12-25T21:32:19.258Z,75.57
2022-12-25T21:34:49.405Z,66.10
2022-12-25T21:37:21.531Z,81.20
2022-12-25T21:39:52.185Z,61.10
2022-12-25T21:42:21.751Z,62.60
2022-12-25T21:44:56.281Z,66.93
2022-12-25T21:47:25.997Z,70.67
2022-12-25T21:50:38.973Z,69.77
2022-12-25T21:53:17.321Z,74.50
2022-12-25T21:55:57.319Z,80.30
2022-12-25T21:58:26.883Z,66.63
2022-12-25T22:01:01.445Z,73.00
2022-12-25T22:03:32.582Z,67.97
2022-12-25T22:06:22.449Z,65.20
2022-12-25T22:08:56.972Z,70.57
2022-12-25T22:14:54.231Z,65.73
2022-12-25T22:17:44.977Z,66.70
2022-12-25T22:20:17.720Z,64.47
2022-12-25T22:22:48.358Z,56.90
2022-12-25T22:25:19.150Z,53.07
2022-12-25T22:27:50.854Z,68.30
2022-12-25T22:30:23.631Z,65.83
2022-12-25T22:32:54.669Z,57.60
2022-12-25T22:35:24.411Z,65.43
2022-12-25T22:37:54.839Z,67.50
2022-12-25T22:40:25.155Z,62.43
2022-12-25T22:42:55.746Z,55.27
2022-12-25T22:45:25.303Z,65.90
2022-12-25T22:47:54.914Z,63.27
2022-12-25T22:50:25.207Z,61.33
2022-12-25T22:52:55.208Z,55.60
2022-12-25T22:55:24.364Z,62.13
2022-12-25T22:57:55.261Z,56.07
2022-12-25T23:00:24.663Z,55.80
2022-12-25T23:02:54.385Z,48.03
2022-12-25T23:05:24.439Z,53.00
2022-12-25T23:07:53.876Z,53.50
2022-12-25T23:10:23.390Z,49.33
2022-12-25T23:13:11.537Z,50.40
2022-12-25T23:15:41.521Z,50.67
2022-12-25T23:18:30.448Z,46.63
2022-12-25T23:21:19.170Z,55.80
2022-12-25T23:24:08.135Z,53.00
2022-12-25T23:26:38.014Z,48.53
2022-12-25T23:29:24.887Z,46.93
2022-12-25T23:31:55.407Z,51.10
2022-12-25T23:34:25.096Z,47.47
2022-12-25T23:36:54.208Z,48.30
2022-12-25T23:39:23.076Z,53.30
2022-12-25T23:41:52.073Z,51.97
2022-12-25T23:44:21.480Z,51.07
2022-12-25T23:46:54.816Z,46.67
2022-12-25T23:49:25.443Z,45.93
2022-12-25T23:51:55.938Z,44.37
2022-12-25T23:54:27.281Z,50.23
2022-12-25T23:56:57.765Z,49.30
2022-12-25T23:59:28.916Z,56.37
